Terminal Aerodrome Forecast
Issued by NWS

Home | Current Version | Previous Version | Text Only | Print | Product List | Glossary On
Versions: 1 2 3 4 5 6 7 8 9 10 11 12 13 14 15 16 17 18 19 20 21 22 23 24 25 26 27
000
FTUS44 KHGX 262339
TAFUTS
TAF
KUTS 262339Z 2700/2724 12006KT P6SM VCSH OVC023
      TEMPO 2700/2703 6SM -RA BR BKN010
     FM270300 14007KT 5SM BR BKN010
     FM271000 17004KT 5SM -DZ BR SCT004 OVC008
     FM271400 34008KT P6SM SCT015
     FM271800 34014KT P6SM BKN015=

USA.gov is the U.S. government's official web portal to all federal, state and local government web resources and services.